sensor_id;sensor_type;location;lat;lon;timestamp;temperature;humidity
14924;DHT22;7554;43.600;1.480;2024-02-21T00:00:58;8.30;1.00
14924;DHT22;7554;43.600;1.480;2024-02-21T00:03:26;8.40;1.00
14924;DHT22;7554;43.600;1.480;2024-02-21T00:05:54;8.30;1.00
14924;DHT22;7554;43.600;1.480;2024-02-21T00:08:21;8.30;1.00
14924;DHT22;7554;43.600;1.480;2024-02-21T00:10:48;8.30;1.00
14924;DHT22;7554;43.600;1.480;2024-02-21T00:13:16;8.30;1.00
14924;DHT22;7554;43.600;1.480;2024-02-21T00:15:43;8.30;1.00
14924;DHT22;7554;43.600;1.480;2024-02-21T00:18:10;8.40;1.00
14924;DHT22;7554;43.600;1.480;2024-02-21T00:20:39;8.40;1.00
14924;DHT22;7554;43.600;1.480;2024-02-21T00:23:06;8.40;1.00
14924;DHT22;7554;43.600;1.480;2024-02-21T00:25:34;8.40;1.00
14924;DHT22;7554;43.600;1.480;2024-02-21T00:28:01;8.40;1.00
14924;DHT22;7554;43.600;1.480;2024-02-21T00:30:28;8.40;1.00
14924;DHT22;7554;43.600;1.480;2024-02-21T00:32:55;8.50;1.00
14924;DHT22;7554;43.600;1.480;2024-02-21T00:35:23;8.50;1.00
14924;DHT22;7554;43.600;1.480;2024-02-21T00:37:51;8.50;1.00
14924;DHT22;7554;43.600;1.480;2024-02-21T00:40:19;8.40;1.00
14924;DHT22;7554;43.600;1.480;2024-02-21T00:42:47;8.50;1.00
14924;DHT22;7554;43.600;1.480;2024-02-21T00:45:15;8.40;1.00
14924;DHT22;7554;43.600;1.480;2024-02-21T00:47:42;8.40;1.00
14924;DHT22;7554;43.600;1.480;2024-02-21T00:50:09;8.30;1.00
14924;DHT22;7554;43.600;1.480;2024-02-21T00:52:37;8.30;1.00
14924;DHT22;7554;43.600;1.480;2024-02-21T00:55:06;8.30;1.00
14924;DHT22;7554;43.600;1.480;2024-02-21T00:57:34;8.40;1.00
14924;DHT22;7554;43.600;1.480;2024-02-21T01:00:02;8.40;1.00
14924;DHT22;7554;43.600;1.480;2024-02-21T01:02:29;8.50;1.00
14924;DHT22;7554;43.600;1.480;2024-02-21T01:04:57;8.50;1.00
14924;DHT22;7554;43.600;1.480;2024-02-21T01:07:24;8.50;1.00
14924;DHT22;7554;43.600;1.480;2024-02-21T01:09:52;8.50;1.00
14924;DHT22;7554;43.600;1.480;2024-02-21T01:12:21;8.50;1.00
14924;DHT22;7554;43.600;1.480;2024-02-21T01:14:48;8.50;1.00
14924;DHT22;7554;43.600;1.480;2024-02-21T01:17:16;8.50;1.00
14924;DHT22;7554;43.600;1.480;2024-02-21T01:19:43;8.40;1.00
14924;DHT22;7554;43.600;1.480;2024-02-21T01:22:10;8.30;1.00
14924;DHT22;7554;43.600;1.480;2024-02-21T01:24:37;8.20;1.00
14924;DHT22;7554;43.600;1.480;2024-02-21T01:27:05;8.20;1.00
14924;DHT22;7554;43.600;1.480;2024-02-21T01:29:33;8.20;1.00
14924;DHT22;7554;43.600;1.480;2024-02-21T01:32:01;8.20;1.00
14924;DHT22;7554;43.600;1.480;2024-02-21T01:34:28;8.20;1.00
14924;DHT22;7554;43.600;1.480;2024-02-21T01:36:55;8.10;1.00
14924;DHT22;7554;43.600;1.480;2024-02-21T01:39:23;8.10;1.00
14924;DHT22;7554;43.600;1.480;2024-02-21T01:41:50;8.10;1.00
14924;DHT22;7554;43.600;1.480;2024-02-21T01:44:17;8.10;1.00
14924;DHT22;7554;43.600;1.480;2024-02-21T01:46:46;8.10;1.00
14924;DHT22;7554;43.600;1.480;2024-02-21T01:49:13;8.00;1.00
14924;DHT22;7554;43.600;1.480;2024-02-21T01:51:41;8.00;1.00
14924;DHT22;7554;43.600;1.480;2024-02-21T01:54:08;7.90;1.00
14924;DHT22;7554;43.600;1.480;2024-02-21T01:56:37;7.90;1.00
14924;DHT22;7554;43.600;1.480;2024-02-21T01:59:04;7.90;1.00
14924;DHT22;7554;43.600;1.480;2024-02-21T02:01:32;7.90;1.00
14924;DHT22;7554;43.600;1.480;2024-02-21T02:04:01;7.80;1.00
14924;DHT22;7554;43.600;1.480;2024-02-21T02:06:28;7.80;1.00
14924;DHT22;7554;43.600;1.480;2024-02-21T02:08:56;7.70;1.00
14924;DHT22;7554;43.600;1.480;2024-02-21T02:11:23;7.70;1.00
14924;DHT22;7554;43.600;1.480;2024-02-21T02:13:51;7.70;1.30
14924;DHT22;7554;43.600;1.480;2024-02-21T02:16:18;7.70;2.90
14924;DHT22;7554;43.600;1.480;2024-02-21T02:18:45;7.70;6.00
14924;DHT22;7554;43.600;1.480;2024-02-21T02:21:24;7.70;7.70
14924;DHT22;7554;43.600;1.480;2024-02-21T02:23:54;7.70;6.40
14924;DHT22;7554;43.600;1.480;2024-02-21T02:26:22;7.60;5.00
14924;DHT22;7554;43.600;1.480;2024-02-21T02:28:49;7.60;10.20
14924;DHT22;7554;43.600;1.480;2024-02-21T02:31:16;7.60;12.40
14924;DHT22;7554;43.600;1.480;2024-02-21T02:33:44;7.60;15.60
14924;DHT22;7554;43.600;1.480;2024-02-21T02:36:11;7.70;15.80
14924;DHT22;7554;43.600;1.480;2024-02-21T02:38:38;7.70;14.40
14924;DHT22;7554;43.600;1.480;2024-02-21T02:41:07;7.60;15.80
14924;DHT22;7554;43.600;1.480;2024-02-21T02:43:34;7.50;13.90
14924;DHT22;7554;43.600;1.480;2024-02-21T02:46:02;7.40;15.70
14924;DHT22;7554;43.600;1.480;2024-02-21T02:48:30;7.40;17.60
14924;DHT22;7554;43.600;1.480;2024-02-21T02:50:57;7.40;19.10
14924;DHT22;7554;43.600;1.480;2024-02-21T02:53:25;7.30;19.30
14924;DHT22;7554;43.600;1.480;2024-02-21T02:55:53;7.20;17.10
14924;DHT22;7554;43.600;1.480;2024-02-21T02:58:22;7.20;20.80
14924;DHT22;7554;43.600;1.480;2024-02-21T03:00:49;7.10;22.60
14924;DHT22;7554;43.600;1.480;2024-02-21T03:03:16;7.10;24.20
14924;DHT22;7554;43.600;1.480;2024-02-21T03:05:44;7.10;26.90
14924;DHT22;7554;43.600;1.480;2024-02-21T03:08:11;7.10;28.00
14924;DHT22;7554;43.600;1.480;2024-02-21T03:10:38;7.00;31.80
14924;DHT22;7554;43.600;1.480;2024-02-21T03:13:06;7.00;30.00
14924;DHT22;7554;43.600;1.480;2024-02-21T03:15:35;7.00;30.60
14924;DHT22;7554;43.600;1.480;2024-02-21T03:18:02;6.90;29.10
14924;DHT22;7554;43.600;1.480;2024-02-21T03:20:30;6.90;28.60
14924;DHT22;7554;43.600;1.480;2024-02-21T03:22:58;6.90;27.80
14924;DHT22;7554;43.600;1.480;2024-02-21T03:25:25;6.80;27.60
14924;DHT22;7554;43.600;1.480;2024-02-21T03:27:52;6.70;30.00
14924;DHT22;7554;43.600;1.480;2024-02-21T03:30:19;6.60;34.60
14924;DHT22;7554;43.600;1.480;2024-02-21T03:32:48;6.60;41.00
14924;DHT22;7554;43.600;1.480;2024-02-21T03:35:15;6.60;38.20
14924;DHT22;7554;43.600;1.480;2024-02-21T03:37:45;6.60;40.70
14924;DHT22;7554;43.600;1.480;2024-02-21T03:40:12;6.60;39.40
14924;DHT22;7554;43.600;1.480;2024-02-21T03:42:39;6.70;42.20
14924;DHT22;7554;43.600;1.480;2024-02-21T03:45:08;6.60;65.10
14924;DHT22;7554;43.600;1.480;2024-02-21T03:47:35;6.60;38.30
14924;DHT22;7554;43.600;1.480;2024-02-21T03:50:05;6.50;40.00
14924;DHT22;7554;43.600;1.480;2024-02-21T03:52:32;6.50;44.80
14924;DHT22;7554;43.600;1.480;2024-02-21T03:55:00;6.50;44.30
14924;DHT22;7554;43.600;1.480;2024-02-21T03:57:27;6.50;43.60
14924;DHT22;7554;43.600;1.480;2024-02-21T03:59:54;6.50;45.90
14924;DHT22;7554;43.600;1.480;2024-02-21T04:02:22;6.50;50.20
14924;DHT22;7554;43.600;1.480;2024-02-21T04:04:49;6.50;51.40
14924;DHT22;7554;43.600;1.480;2024-02-21T04:07:18;6.60;49.60
14924;DHT22;7554;43.600;1.480;2024-02-21T04:09:45;6.50;48.60
14924;DHT22;7554;43.600;1.480;2024-02-21T04:12:12;6.50;51.20
14924;DHT22;7554;43.600;1.480;2024-02-21T04:14:40;6.50;53.90
14924;DHT22;7554;43.600;1.480;2024-02-21T04:17:07;6.50;54.00
14924;DHT22;7554;43.600;1.480;2024-02-21T04:19:34;6.40;61.10
14924;DHT22;7554;43.600;1.480;2024-02-21T04:22:02;6.40;67.50
14924;DHT22;7554;43.600;1.480;2024-02-21T04:24:32;6.40;65.80
14924;DHT22;7554;43.600;1.480;2024-02-21T04:26:59;6.40;65.00
14924;DHT22;7554;43.600;1.480;2024-02-21T04:29:26;6.30;59.30
14924;DHT22;7554;43.600;1.480;2024-02-21T04:31:54;6.30;65.50
14924;DHT22;7554;43.600;1.480;2024-02-21T04:34:21;6.30;65.50
14924;DHT22;7554;43.600;1.480;2024-02-21T04:36:49;6.30;63.90
14924;DHT22;7554;43.600;1.480;2024-02-21T04:39:16;6.20;68.60
14924;DHT22;7554;43.600;1.480;2024-02-21T04:41:45;6.20;71.70
14924;DHT22;7554;43.600;1.480;2024-02-21T04:44:12;6.20;76.30
14924;DHT22;7554;43.600;1.480;2024-02-21T04:46:42;6.20;80.20
14924;DHT22;7554;43.600;1.480;2024-02-21T04:49:09;6.20;77.30
14924;DHT22;7554;43.600;1.480;2024-02-21T04:51:37;6.20;93.70
14924;DHT22;7554;43.600;1.480;2024-02-21T04:54:04;6.10;99.90
14924;DHT22;7554;43.600;1.480;2024-02-21T04:56:31;6.00;99.90
14924;DHT22;7554;43.600;1.480;2024-02-21T04:59:00;6.00;99.90
14924;DHT22;7554;43.600;1.480;2024-02-21T05:01:28;6.00;99.90
14924;DHT22;7554;43.600;1.480;2024-02-21T05:03:55;6.00;99.90
14924;DHT22;7554;43.600;1.480;2024-02-21T05:06:23;6.00;99.90
14924;DHT22;7554;43.600;1.480;2024-02-21T05:08:50;6.00;99.70
14924;DHT22;7554;43.600;1.480;2024-02-21T05:11:17;6.00;99.00
14924;DHT22;7554;43.600;1.480;2024-02-21T05:13:44;6.00;95.00
14924;DHT22;7554;43.600;1.480;2024-02-21T05:16:13;6.00;96.30
14924;DHT22;7554;43.600;1.480;2024-02-21T05:18:40;6.00;99.90
14924;DHT22;7554;43.600;1.480;2024-02-21T05:21:09;6.00;96.90
14924;DHT22;7554;43.600;1.480;2024-02-21T05:23:36;5.90;99.90
14924;DHT22;7554;43.600;1.480;2024-02-21T05:26:05;5.90;99.90
14924;DHT22;7554;43.600;1.480;2024-02-21T05:28:32;6.00;99.90
14924;DHT22;7554;43.600;1.480;2024-02-21T05:31:00;5.90;99.90
14924;DHT22;7554;43.600;1.480;2024-02-21T05:33:29;5.90;99.90
14924;DHT22;7554;43.600;1.480;2024-02-21T05:35:56;5.90;99.90
14924;DHT22;7554;43.600;1.480;2024-02-21T05:38:23;5.90;99.90
14924;DHT22;7554;43.600;1.480;2024-02-21T05:40:51;5.90;99.90
14924;DHT22;7554;43.600;1.480;2024-02-21T05:43:19;5.80;99.90
14924;DHT22;7554;43.600;1.480;2024-02-21T05:45:46;5.90;99.90
14924;DHT22;7554;43.600;1.480;2024-02-21T05:48:14;5.90;99.90
14924;DHT22;7554;43.600;1.480;2024-02-21T05:50:43;5.90;98.40
14924;DHT22;7554;43.600;1.480;2024-02-21T05:53:10;5.80;96.60
14924;DHT22;7554;43.600;1.480;2024-02-21T05:55:39;5.80;97.00
14924;DHT22;7554;43.600;1.480;2024-02-21T05:58:06;5.80;93.60
14924;DHT22;7554;43.600;1.480;2024-02-21T06:00:36;5.80;94.70
14924;DHT22;7554;43.600;1.480;2024-02-21T06:03:04;5.80;94.40
14924;DHT22;7554;43.600;1.480;2024-02-21T06:05:35;5.70;90.30
14924;DHT22;7554;43.600;1.480;2024-02-21T06:08:05;5.80;91.70
14924;DHT22;7554;43.600;1.480;2024-02-21T06:10:32;5.70;91.60
14924;DHT22;7554;43.600;1.480;2024-02-21T06:12:59;5.70;86.70
14924;DHT22;7554;43.600;1.480;2024-02-21T06:15:27;5.70;86.90
14924;DHT22;7554;43.600;1.480;2024-02-21T06:17:54;5.60;83.60
14924;DHT22;7554;43.600;1.480;2024-02-21T06:20:21;5.60;83.10
14924;DHT22;7554;43.600;1.480;2024-02-21T06:22:49;5.50;80.90
14924;DHT22;7554;43.600;1.480;2024-02-21T06:25:17;5.50;80.20
14924;DHT22;7554;43.600;1.480;2024-02-21T06:27:45;5.40;71.50
14924;DHT22;7554;43.600;1.480;2024-02-21T06:30:13;5.30;78.80
14924;DHT22;7554;43.600;1.480;2024-02-21T06:32:40;5.40;78.10
14924;DHT22;7554;43.600;1.480;2024-02-21T06:35:08;5.40;82.80
14924;DHT22;7554;43.600;1.480;2024-02-21T06:37:35;5.40;83.20
14924;DHT22;7554;43.600;1.480;2024-02-21T06:40:04;5.50;78.50
14924;DHT22;7554;43.600;1.480;2024-02-21T06:42:33;5.50;73.80
14924;DHT22;7554;43.600;1.480;2024-02-21T06:45:00;5.50;74.10
14924;DHT22;7554;43.600;1.480;2024-02-21T06:47:27;5.60;71.20
14924;DHT22;7554;43.600;1.480;2024-02-21T06:49:55;5.60;70.10
14924;DHT22;7554;43.600;1.480;2024-02-21T06:52:22;5.60;67.00
14924;DHT22;7554;43.600;1.480;2024-02-21T06:54:50;5.70;64.00
14924;DHT22;7554;43.600;1.480;2024-02-21T06:57:17;5.70;59.60
14924;DHT22;7554;43.600;1.480;2024-02-21T06:59:46;5.80;50.80
14924;DHT22;7554;43.600;1.480;2024-02-21T07:02:13;5.90;49.60
14924;DHT22;7554;43.600;1.480;2024-02-21T07:04:41;5.90;44.20
14924;DHT22;7554;43.600;1.480;2024-02-21T07:07:09;6.10;39.70
14924;DHT22;7554;43.600;1.480;2024-02-21T07:09:36;6.60;40.90
14924;DHT22;7554;43.600;1.480;2024-02-21T07:12:04;7.40;12.50
14924;DHT22;7554;43.600;1.480;2024-02-21T07:14:32;7.60;1.00
14924;DHT22;7554;43.600;1.480;2024-02-21T07:17:01;7.00;1.00
14924;DHT22;7554;43.600;1.480;2024-02-21T07:19:29;6.70;1.00
14924;DHT22;7554;43.600;1.480;2024-02-21T07:21:56;6.70;1.00
14924;DHT22;7554;43.600;1.480;2024-02-21T07:24:23;6.70;1.00
14924;DHT22;7554;43.600;1.480;2024-02-21T07:26:51;6.70;1.00
14924;DHT22;7554;43.600;1.480;2024-02-21T07:29:19;6.60;1.00
14924;DHT22;7554;43.600;1.480;2024-02-21T07:31:46;6.80;1.00
14924;DHT22;7554;43.600;1.480;2024-02-21T07:34:16;7.70;1.00
14924;DHT22;7554;43.600;1.480;2024-02-21T07:36:43;9.90;1.00
14924;DHT22;7554;43.600;1.480;2024-02-21T07:39:11;9.70;1.00
14924;DHT22;7554;43.600;1.480;2024-02-21T07:41:38;9.80;1.00
14924;DHT22;7554;43.600;1.480;2024-02-21T07:44:07;9.80;1.00
14924;DHT22;7554;43.600;1.480;2024-02-21T07:46:34;10.00;1.00
14924;DHT22;7554;43.600;1.480;2024-02-21T07:49:01;10.10;1.00
14924;DHT22;7554;43.600;1.480;2024-02-21T07:51:30;10.10;1.00
14924;DHT22;7554;43.600;1.480;2024-02-21T07:53:58;10.00;1.00
14924;DHT22;7554;43.600;1.480;2024-02-21T07:56:27;9.80;1.00
14924;DHT22;7554;43.600;1.480;2024-02-21T07:58:55;9.70;1.00
14924;DHT22;7554;43.600;1.480;2024-02-21T08:01:23;9.70;1.00
14924;DHT22;7554;43.600;1.480;2024-02-21T08:03:50;9.20;1.00
14924;DHT22;7554;43.600;1.480;2024-02-21T08:06:17;8.20;1.00
14924;DHT22;7554;43.600;1.480;2024-02-21T08:08:47;7.70;1.00
14924;DHT22;7554;43.600;1.480;2024-02-21T08:11:15;7.60;1.00
14924;DHT22;7554;43.600;1.480;2024-02-21T08:13:42;7.40;1.00
14924;DHT22;7554;43.600;1.480;2024-02-21T08:16:09;7.30;1.00
14924;DHT22;7554;43.600;1.480;2024-02-21T08:18:37;7.10;1.00
14924;DHT22;7554;43.600;1.480;2024-02-21T08:21:04;7.10;1.00
14924;DHT22;7554;43.600;1.480;2024-02-21T08:23:32;7.20;1.00
14924;DHT22;7554;43.600;1.480;2024-02-21T08:26:03;7.10;1.00
14924;DHT22;7554;43.600;1.480;2024-02-21T08:28:30;7.30;1.00
14924;DHT22;7554;43.600;1.480;2024-02-21T08:30:57;7.40;1.00
14924;DHT22;7554;43.600;1.480;2024-02-21T08:33:25;7.50;1.00
14924;DHT22;7554;43.600;1.480;2024-02-21T08:35:52;7.70;1.00
14924;DHT22;7554;43.600;1.480;2024-02-21T08:38:19;7.70;1.00
14924;DHT22;7554;43.600;1.480;2024-02-21T08:40:47;7.90;1.00
14924;DHT22;7554;43.600;1.480;2024-02-21T08:43:15;8.10;1.00
14924;DHT22;7554;43.600;1.480;2024-02-21T08:45:43;8.40;1.00
14924;DHT22;7554;43.600;1.480;2024-02-21T08:48:13;8.80;1.00
14924;DHT22;7554;43.600;1.480;2024-02-21T08:50:40;9.20;1.00
14924;DHT22;7554;43.600;1.480;2024-02-21T08:53:07;9.70;1.00
14924;DHT22;7554;43.600;1.480;2024-02-21T08:55:34;10.00;1.00
14924;DHT22;7554;43.600;1.480;2024-02-21T08:58:02;10.20;1.00
14924;DHT22;7554;43.600;1.480;2024-02-21T09:00:31;10.40;1.00
14924;DHT22;7554;43.600;1.480;2024-02-21T09:02:59;10.60;1.00
14924;DHT22;7554;43.600;1.480;2024-02-21T09:05:26;10.70;1.00
14924;DHT22;7554;43.600;1.480;2024-02-21T09:07:53;10.90;1.00
14924;DHT22;7554;43.600;1.480;2024-02-21T09:10:21;11.00;1.00
14924;DHT22;7554;43.600;1.480;2024-02-21T09:12:48;11.00;1.00
14924;DHT22;7554;43.600;1.480;2024-02-21T09:15:16;11.00;1.00
14924;DHT22;7554;43.600;1.480;2024-02-21T09:17:44;11.00;1.00
14924;DHT22;7554;43.600;1.480;2024-02-21T09:20:12;11.20;1.00
14924;DHT22;7554;43.600;1.480;2024-02-21T09:22:42;11.20;1.00
14924;DHT22;7554;43.600;1.480;2024-02-21T09:25:09;11.20;1.00
14924;DHT22;7554;43.600;1.480;2024-02-21T09:27:37;11.30;1.00
14924;DHT22;7554;43.600;1.480;2024-02-21T09:30:06;11.50;1.00
14924;DHT22;7554;43.600;1.480;2024-02-21T09:32:33;11.40;1.00
14924;DHT22;7554;43.600;1.480;2024-02-21T09:35:03;11.40;1.00
14924;DHT22;7554;43.600;1.480;2024-02-21T09:37:31;11.50;1.00
14924;DHT22;7554;43.600;1.480;2024-02-21T09:39:59;11.50;1.00
14924;DHT22;7554;43.600;1.480;2024-02-21T09:42:32;11.30;1.00
14924;DHT22;7554;43.600;1.480;2024-02-21T09:45:08;11.10;1.00
14924;DHT22;7554;43.600;1.480;2024-02-21T09:47:44;11.20;1.00
14924;DHT22;7554;43.600;1.480;2024-02-21T09:50:17;11.30;1.00
14924;DHT22;7554;43.600;1.480;2024-02-21T09:52:48;11.40;1.00
14924;DHT22;7554;43.600;1.480;2024-02-21T09:55:18;11.40;1.00
14924;DHT22;7554;43.600;1.480;2024-02-21T09:57:46;11.60;1.00
14924;DHT22;7554;43.600;1.480;2024-02-21T10:00:15;11.80;1.00
14924;DHT22;7554;43.600;1.480;2024-02-21T10:02:47;12.00;1.00
14924;DHT22;7554;43.600;1.480;2024-02-21T10:05:17;11.90;1.00
14924;DHT22;7554;43.600;1.480;2024-02-21T10:07:44;12.10;1.00
14924;DHT22;7554;43.600;1.480;2024-02-21T10:10:12;12.10;1.00
14924;DHT22;7554;43.600;1.480;2024-02-21T10:12:48;12.20;1.00
14924;DHT22;7554;43.600;1.480;2024-02-21T10:15:20;12.50;1.00
14924;DHT22;7554;43.600;1.480;2024-02-21T10:17:48;12.70;1.00
14924;DHT22;7554;43.600;1.480;2024-02-21T10:20:17;12.80;1.00
14924;DHT22;7554;43.600;1.480;2024-02-21T10:22:44;12.90;1.00
14924;DHT22;7554;43.600;1.480;2024-02-21T10:25:12;12.90;1.00
14924;DHT22;7554;43.600;1.480;2024-02-21T10:27:39;12.80;1.00
14924;DHT22;7554;43.600;1.480;2024-02-21T10:30:12;13.00;1.00
14924;DHT22;7554;43.600;1.480;2024-02-21T10:32:49;13.50;1.00
14924;DHT22;7554;43.600;1.480;2024-02-21T10:35:25;13.90;1.00
14924;DHT22;7554;43.600;1.480;2024-02-21T10:37:53;14.30;1.00
14924;DHT22;7554;43.600;1.480;2024-02-21T10:40:23;14.50;1.00
14924;DHT22;7554;43.600;1.480;2024-02-21T10:42:54;14.60;1.00
14924;DHT22;7554;43.600;1.480;2024-02-21T10:45:24;14.50;1.00
14924;DHT22;7554;43.600;1.480;2024-02-21T10:47:54;14.60;1.00
14924;DHT22;7554;43.600;1.480;2024-02-21T10:50:25;14.70;1.00
14924;DHT22;7554;43.600;1.480;2024-02-21T10:53:02;14.60;1.00
14924;DHT22;7554;43.600;1.480;2024-02-21T10:55:38;14.50;1.00
14924;DHT22;7554;43.600;1.480;2024-02-21T10:58:09;14.30;1.00
14924;DHT22;7554;43.600;1.480;2024-02-21T11:00:37;14.30;1.00
14924;DHT22;7554;43.600;1.480;2024-02-21T11:03:05;14.40;1.00
14924;DHT22;7554;43.600;1.480;2024-02-21T11:05:34;14.30;1.00
14924;DHT22;7554;43.600;1.480;2024-02-21T11:08:02;14.10;1.00
14924;DHT22;7554;43.600;1.480;2024-02-21T11:10:30;14.30;1.00
14924;DHT22;7554;43.600;1.480;2024-02-21T11:13:06;14.60;1.00
14924;DHT22;7554;43.600;1.480;2024-02-21T11:15:34;14.60;1.00
14924;DHT22;7554;43.600;1.480;2024-02-21T11:18:01;14.60;1.00
14924;DHT22;7554;43.600;1.480;2024-02-21T11:20:34;14.80;1.00
14924;DHT22;7554;43.600;1.480;2024-02-21T11:23:01;14.90;1.00
14924;DHT22;7554;43.600;1.480;2024-02-21T11:25:29;14.90;1.00
14924;DHT22;7554;43.600;1.480;2024-02-21T11:28:01;15.00;1.00
14924;DHT22;7554;43.600;1.480;2024-02-21T11:30:30;14.90;1.00
14924;DHT22;7554;43.600;1.480;2024-02-21T11:33:02;15.20;1.00
14924;DHT22;7554;43.600;1.480;2024-02-21T11:35:34;15.20;1.00
14924;DHT22;7554;43.600;1.480;2024-02-21T11:38:09;15.20;1.00
14924;DHT22;7554;43.600;1.480;2024-02-21T11:40:39;15.20;1.00
14924;DHT22;7554;43.600;1.480;2024-02-21T11:43:07;15.40;1.00
14924;DHT22;7554;43.600;1.480;2024-02-21T11:45:34;15.40;1.00
14924;DHT22;7554;43.600;1.480;2024-02-21T11:48:02;15.50;1.00
14924;DHT22;7554;43.600;1.480;2024-02-21T11:50:31;15.60;1.00
14924;DHT22;7554;43.600;1.480;2024-02-21T11:53:00;15.70;1.00
14924;DHT22;7554;43.600;1.480;2024-02-21T11:55:27;15.60;1.00
14924;DHT22;7554;43.600;1.480;2024-02-21T11:57:55;15.50;1.00
14924;DHT22;7554;43.600;1.480;2024-02-21T12:00:23;15.60;1.00
14924;DHT22;7554;43.600;1.480;2024-02-21T12:02:51;15.70;1.00
14924;DHT22;7554;43.600;1.480;2024-02-21T12:05:19;15.70;1.00
14924;DHT22;7554;43.600;1.480;2024-02-21T12:07:46;15.60;1.00
14924;DHT22;7554;43.600;1.480;2024-02-21T12:10:15;15.60;1.00
14924;DHT22;7554;43.600;1.480;2024-02-21T12:12:43;15.40;1.00
14924;DHT22;7554;43.600;1.480;2024-02-21T12:15:10;15.50;1.00
14924;DHT22;7554;43.600;1.480;2024-02-21T12:17:39;15.50;1.00
14924;DHT22;7554;43.600;1.480;2024-02-21T12:20:07;15.80;1.00
14924;DHT22;7554;43.600;1.480;2024-02-21T12:22:35;15.80;1.00
14924;DHT22;7554;43.600;1.480;2024-02-21T12:25:03;15.80;1.00
14924;DHT22;7554;43.600;1.480;2024-02-21T12:27:35;15.80;1.00
14924;DHT22;7554;43.600;1.480;2024-02-21T12:30:02;15.60;1.00
14924;DHT22;7554;43.600;1.480;2024-02-21T12:32:35;15.50;1.00
14924;DHT22;7554;43.600;1.480;2024-02-21T12:35:03;15.50;1.00
14924;DHT22;7554;43.600;1.480;2024-02-21T12:37:31;15.60;1.00
14924;DHT22;7554;43.600;1.480;2024-02-21T12:39:58;15.70;1.00
14924;DHT22;7554;43.600;1.480;2024-02-21T12:42:26;15.80;1.00
14924;DHT22;7554;43.600;1.480;2024-02-21T12:44:56;15.80;1.00
14924;DHT22;7554;43.600;1.480;2024-02-21T12:47:23;15.80;1.00
14924;DHT22;7554;43.600;1.480;2024-02-21T12:49:52;15.90;1.00
14924;DHT22;7554;43.600;1.480;2024-02-21T12:52:19;15.80;1.00
14924;DHT22;7554;43.600;1.480;2024-02-21T12:54:47;16.00;1.00
14924;DHT22;7554;43.600;1.480;2024-02-21T12:57:14;16.10;1.00
14924;DHT22;7554;43.600;1.480;2024-02-21T12:59:42;16.30;1.00
14924;DHT22;7554;43.600;1.480;2024-02-21T13:02:10;16.20;1.00
14924;DHT22;7554;43.600;1.480;2024-02-21T13:04:38;16.40;1.00
14924;DHT22;7554;43.600;1.480;2024-02-21T13:07:07;16.40;1.00
14924;DHT22;7554;43.600;1.480;2024-02-21T13:09:34;16.50;1.00
14924;DHT22;7554;43.600;1.480;2024-02-21T13:12:02;16.50;1.00
14924;DHT22;7554;43.600;1.480;2024-02-21T13:14:29;16.50;1.00
14924;DHT22;7554;43.600;1.480;2024-02-21T13:16:58;16.50;1.00
14924;DHT22;7554;43.600;1.480;2024-02-21T13:19:27;16.50;1.00
14924;DHT22;7554;43.600;1.480;2024-02-21T13:21:54;16.60;1.00
14924;DHT22;7554;43.600;1.480;2024-02-21T13:24:22;16.80;1.00
14924;DHT22;7554;43.600;1.480;2024-02-21T13:26:49;16.80;1.00
14924;DHT22;7554;43.600;1.480;2024-02-21T13:29:17;16.70;1.00
14924;DHT22;7554;43.600;1.480;2024-02-21T13:31:44;16.60;1.00
14924;DHT22;7554;43.600;1.480;2024-02-21T13:34:12;16.50;1.00
14924;DHT22;7554;43.600;1.480;2024-02-21T13:36:40;16.50;1.00
14924;DHT22;7554;43.600;1.480;2024-02-21T13:39:07;16.60;1.00
14924;DHT22;7554;43.600;1.480;2024-02-21T13:41:38;16.50;1.00
14924;DHT22;7554;43.600;1.480;2024-02-21T13:44:06;16.50;1.00
14924;DHT22;7554;43.600;1.480;2024-02-21T13:46:35;16.50;1.00
14924;DHT22;7554;43.600;1.480;2024-02-21T13:49:03;16.60;1.00
14924;DHT22;7554;43.600;1.480;2024-02-21T13:51:33;16.60;1.00
14924;DHT22;7554;43.600;1.480;2024-02-21T13:54:04;16.60;1.00
14924;DHT22;7554;43.600;1.480;2024-02-21T13:56:34;16.50;1.00
14924;DHT22;7554;43.600;1.480;2024-02-21T13:59:02;16.40;1.00
14924;DHT22;7554;43.600;1.480;2024-02-21T14:01:30;16.60;1.00
14924;DHT22;7554;43.600;1.480;2024-02-21T14:03:58;16.70;1.00
14924;DHT22;7554;43.600;1.480;2024-02-21T14:06:26;16.80;1.00
14924;DHT22;7554;43.600;1.480;2024-02-21T14:08:53;16.80;1.00
14924;DHT22;7554;43.600;1.480;2024-02-21T14:11:22;16.70;1.00
14924;DHT22;7554;43.600;1.480;2024-02-21T14:13:49;16.80;1.00
14924;DHT22;7554;43.600;1.480;2024-02-21T14:16:17;16.80;1.00
14924;DHT22;7554;43.600;1.480;2024-02-21T14:18:44;16.90;1.00
14924;DHT22;7554;43.600;1.480;2024-02-21T14:21:11;17.00;1.00
14924;DHT22;7554;43.600;1.480;2024-02-21T14:23:39;17.00;1.00
14924;DHT22;7554;43.600;1.480;2024-02-21T14:26:06;17.00;1.00
14924;DHT22;7554;43.600;1.480;2024-02-21T14:28:35;17.10;1.00
14924;DHT22;7554;43.600;1.480;2024-02-21T14:31:02;17.10;1.00
14924;DHT22;7554;43.600;1.480;2024-02-21T14:33:31;17.20;1.00
14924;DHT22;7554;43.600;1.480;2024-02-21T14:35:59;17.30;1.00
14924;DHT22;7554;43.600;1.480;2024-02-21T14:38:26;17.30;1.00
14924;DHT22;7554;43.600;1.480;2024-02-21T14:40:53;17.30;1.00
14924;DHT22;7554;43.600;1.480;2024-02-21T14:43:21;17.30;1.00
14924;DHT22;7554;43.600;1.480;2024-02-21T14:45:50;17.30;1.00
14924;DHT22;7554;43.600;1.480;2024-02-21T14:48:17;17.30;1.00
14924;DHT22;7554;43.600;1.480;2024-02-21T14:50:44;17.40;1.00
14924;DHT22;7554;43.600;1.480;2024-02-21T14:53:11;17.40;1.00
14924;DHT22;7554;43.600;1.480;2024-02-21T14:55:39;17.50;1.00
14924;DHT22;7554;43.600;1.480;2024-02-21T14:58:07;17.40;1.00
14924;DHT22;7554;43.600;1.480;2024-02-21T15:00:35;17.40;1.00
14924;DHT22;7554;43.600;1.480;2024-02-21T15:03:04;17.40;1.00
14924;DHT22;7554;43.600;1.480;2024-02-21T15:05:31;17.40;1.00
14924;DHT22;7554;43.600;1.480;2024-02-21T15:08:00;17.30;1.00
14924;DHT22;7554;43.600;1.480;2024-02-21T15:10:28;17.20;1.00
14924;DHT22;7554;43.600;1.480;2024-02-21T15:12:55;17.20;1.00
14924;DHT22;7554;43.600;1.480;2024-02-21T15:15:22;17.10;1.00
14924;DHT22;7554;43.600;1.480;2024-02-21T15:17:49;17.10;1.00
14924;DHT22;7554;43.600;1.480;2024-02-21T15:20:18;17.00;1.00
14924;DHT22;7554;43.600;1.480;2024-02-21T15:22:45;16.90;1.00
14924;DHT22;7554;43.600;1.480;2024-02-21T15:25:13;16.90;1.00
14924;DHT22;7554;43.600;1.480;2024-02-21T15:27:41;16.90;1.00
14924;DHT22;7554;43.600;1.480;2024-02-21T15:30:10;17.00;1.00
14924;DHT22;7554;43.600;1.480;2024-02-21T15:32:38;16.90;1.00
14924;DHT22;7554;43.600;1.480;2024-02-21T15:35:10;17.00;1.00
14924;DHT22;7554;43.600;1.480;2024-02-21T15:37:38;17.00;1.00
14924;DHT22;7554;43.600;1.480;2024-02-21T15:40:06;17.10;1.00
14924;DHT22;7554;43.600;1.480;2024-02-21T15:42:34;17.10;1.00
14924;DHT22;7554;43.600;1.480;2024-02-21T15:45:01;17.00;1.00
14924;DHT22;7554;43.600;1.480;2024-02-21T15:47:30;16.90;1.00
14924;DHT22;7554;43.600;1.480;2024-02-21T15:49:57;16.90;1.00
14924;DHT22;7554;43.600;1.480;2024-02-21T15:52:26;16.90;1.00
14924;DHT22;7554;43.600;1.480;2024-02-21T15:54:55;16.80;1.00
14924;DHT22;7554;43.600;1.480;2024-02-21T15:57:22;16.80;1.00
14924;DHT22;7554;43.600;1.480;2024-02-21T15:59:49;16.70;1.00
14924;DHT22;7554;43.600;1.480;2024-02-21T16:02:19;16.70;1.00
14924;DHT22;7554;43.600;1.480;2024-02-21T16:04:47;16.70;1.00
14924;DHT22;7554;43.600;1.480;2024-02-21T16:07:14;16.70;1.00
14924;DHT22;7554;43.600;1.480;2024-02-21T16:09:41;16.60;1.00